| time (UTC) | temp F | wind direction | speed knots | gust knots | rain 1hr in | rain 24hr in | rain mn in | humidity % | barometer mb |
| 20260503180058 | 83 | 345 | 0.0 | 4.3 | 0.00 | 0.00 | 0.00 | 41 | 1010.1 |
| 20260503174556 | 83 | 128 | 0.9 | 3.5 | 0.00 | 0.00 | 0.00 | 42 | 1010.2 |
| 20260503173044 | 81 | 131 | 0.9 | 4.3 | 0.00 | 0.00 | 0.00 | 46 | 1010.2 |
| 20260503171548 | 75 | 0 | 0.9 | 2.6 | 0.00 | 0.00 | 0.00 | 60 | 1010.2 |
| 20260503081543 | 51 | 296 | 1.7 | 3.5 | 0.00 | 0.00 | 0.00 | 92 | 1011.9 |
| 20260503071602 | 53 | 305 | 0.9 | 2.6 | 0.00 | 0.00 | 0.00 | 90 | 1012.5 |
| 20260503054555 | 55 | 258 | 0.0 | 0.9 | 0.00 | 0.00 | 0.00 | 88 | 1012.5 |
| 20260503053048 | 55 | 277 | 0.9 | 1.7 | 0.00 | 0.00 | 0.00 | 88 | 1012.6 |
| 20260503051539 | 56 | 163 | 0.0 | 0.9 | 0.00 | 0.00 | 0.00 | 87 | 1012.7 |
| 20260503050040 | 56 | 0 | 0.0 | 0.9 | 0.00 | 0.00 | 0.00 | 87 | 1012.9 |
| 20260503044545 | 56 | 156 | 0.0 | 0.0 | 0.00 | 0.00 | 0.00 | 87 | 1012.8 |
| 20260503043044 | 57 | 158 | 0.0 | 1.7 | 0.00 | 0.00 | 0.00 | 85 | 1012.6 |
| 20260503041543 | 58 | 147 | 1.7 | 3.5 | 0.00 | 0.00 | 0.00 | 82 | 1012.5 |
| 20260503040051 | 58 | 0 | 0.0 | 1.7 | 0.00 | 0.00 | 0.00 | 82 | 1012.2 |
| 20260503034539 | 59 | 334 | 0.9 | 0.9 | 0.00 | 0.00 | 0.00 | 81 | 1012.0 |
| 20260503033041 | 60 | 300 | 0.0 | 2.6 | 0.00 | 0.00 | 0.00 | 78 | 1012.0 |
| 20260503031600 | 61 | 258 | 0.0 | 1.7 | 0.00 | 0.00 | 0.00 | 76 | 1012.1 |
| 20260503030048 | 62 | 0 | 0.0 | 0.9 | 0.00 | 0.00 | 0.00 | 76 | 1012.1 |
| 20260503024543 | 61 | 129 | 0.0 | 1.7 | 0.00 | 0.00 | 0.00 | 76 | 1012.3 |
| 20260503023039 | 62 | 123 | 0.9 | 3.5 | 0.00 | 0.00 | 0.00 | 75 | 1012.5 |
| 20260503021539 | 63 | 130 | 2.6 | 3.5 | 0.00 | 0.00 | 0.00 | 71 | 1012.4 |
| 20260503020045 | 65 | 205 | 0.9 | 5.2 | 0.00 | 0.00 | 0.00 | 67 | 1012.3 |
| 20260503014605 | 66 | 307 | 1.7 | 4.3 | 0.00 | 0.00 | 0.00 | 65 | 1012.2 |
| 20260503013042 | 66 | 294 | 1.7 | 4.3 | 0.00 | 0.00 | 0.00 | 64 | 1012.1 |
| 20260503011542 | 65 | 328 | 0.9 | 5.2 | 0.00 | 0.00 | 0.00 | 66 | 1012.2 |
| 20260503010105 | 64 | 342 | 2.6 | 5.2 | 0.00 | 0.00 | 0.00 | 68 | 1012.2 |
| 20260503004537 | 64 | 326 | 1.7 | 5.2 | 0.00 | 0.00 | 0.00 | 68 | 1012.2 |
| 20260503003036 | 63 | 178 | 2.6 | 7.8 | 0.00 | 0.00 | 0.00 | 70 | 1012.2 |
| 20260503001554 | 61 | 231 | 4.3 | 7.0 | 0.00 | 0.00 | 0.00 | 72 | 1012.3 |
| 20260503000043 | 61 | 302 | 2.6 | 6.1 | 0.00 | 0.00 | 0.00 | 73 | 1012.4 |
| 20260502234543 | 62 | 176 | 2.6 | 7.8 | 0.00 | 0.00 | 0.00 | 71 | 1012.5 |
| 20260502233042 | 62 | 234 | 1.7 | 6.1 | 0.00 | 0.00 | 0.00 | 71 | 1012.7 |
| 20260502231538 | 62 | 218 | 0.9 | 4.3 | 0.00 | 0.00 | 0.00 | 71 | 1012.7 |
| 20260502230043 | 62 | 299 | 2.6 | 7.0 | 0.00 | 0.00 | 0.00 | 71 | 1013.0 |
| 20260502224543 | 61 | 312 | 5.2 | 7.8 | 0.00 | 0.00 | 0.00 | 72 | 1013.3 |
| 20260502223042 | 61 | 264 | 5.2 | 8.7 | 0.00 | 0.00 | 0.00 | 72 | 1013.6 |
| 20260502221542 | 61 | 309 | 7.8 | 12.2 | 0.00 | 0.00 | 0.00 | 72 | 1013.6 |
| 20260502220041 | 63 | 200 | 6.1 | 8.7 | 0.00 | 0.00 | 0.00 | 69 | 1013.7 |
| 20260502214545 | 66 | 319 | 0.0 | 2.6 | 0.00 | 0.00 | 0.00 | 63 | 1013.7 |
| 20260502213044 | 63 | 334 | 2.6 | 6.1 | 0.00 | 0.00 | 0.00 | 68 | 1013.7 |
| 20260502211543 | 64 | 172 | 0.9 | 4.3 | 0.00 | 0.00 | 0.00 | 69 | 1013.9 |
| 20260502210045 | 63 | 136 | 0.9 | 6.1 | 0.00 | 0.00 | 0.00 | 70 | 1014.1 |
| 20260502204541 | 61 | 143 | 1.7 | 5.2 | 0.00 | 0.00 | 0.00 | 72 | 1014.2 |
| 20260502203040 | 60 | 174 | 2.6 | 6.1 | 0.00 | 0.00 | 0.00 | 74 | 1014.5 |
| 20260502201550 | 58 | 329 | 3.5 | 6.1 | 0.00 | 0.00 | 0.00 | 77 | 1014.9 |
| 20260502200045 | 57 | 289 | 2.6 | 5.2 | 0.00 | 0.00 | 0.00 | 79 | 1015.2 |
| 20260502194542 | 56 | 305 | 3.5 | 6.1 | 0.00 | 0.00 | 0.00 | 79 | 1015.2 |
| 20260502193039 | 57 | 195 | 0.9 | 4.3 | 0.00 | 0.00 | 0.00 | 80 | 1015.3 |
| 20260502191550 | 58 | 307 | 0.0 | 1.7 | 0.00 | 0.00 | 0.00 | 74 | 1015.6 |
| 20260502190041 | 59 | 211 | 0.9 | 2.6 | 0.00 | 0.00 | 0.00 | 71 | 1015.6 |
| 20260502184556 | 61 | 341 | 0.0 | 3.5 | 0.00 | 0.00 | 0.00 | 66 | 1015.8 |
| 20260502183100 | 61 | 117 | 0.9 | 5.2 | 0.00 | 0.00 | 0.00 | 65 | 1016.0 |
| 20260502181544 | 63 | 125 | 0.9 | 3.5 | 0.00 | 0.00 | 0.00 | 64 | 1016.0 |